createdAt,value
2018-09-22T00:01:38.881Z,47.90
2018-09-22T00:04:07.617Z,48.30
2018-09-22T00:06:35.926Z,48.60
2018-09-22T00:09:07.821Z,48.30
2018-09-22T00:11:36.223Z,47.80
2018-09-22T00:14:04.591Z,48.10
2018-09-22T00:16:32.911Z,47.70
2018-09-22T00:19:01.297Z,47.80
2018-09-22T00:21:29.630Z,47.60
2018-09-22T00:23:57.973Z,48.40
2018-09-22T00:26:26.395Z,48.40
2018-09-22T00:28:54.722Z,48.80
2018-09-22T00:31:24.923Z,48.50
2018-09-22T00:33:55.268Z,48.80
2018-09-22T00:36:23.623Z,48.30
2018-09-22T00:38:51.932Z,48.10
2018-09-22T00:41:20.275Z,47.90
2018-09-22T00:43:48.636Z,47.70
2018-09-22T00:46:16.957Z,47.90
2018-09-22T00:48:45.280Z,47.90
2018-09-22T00:51:13.676Z,50.00
2018-09-22T00:53:42.069Z,49.90
2018-09-22T00:56:11.080Z,50.10
2018-09-22T00:58:40.423Z,50.40
2018-09-22T01:01:08.762Z,50.80
2018-09-22T01:03:37.090Z,50.50
2018-09-22T01:06:05.428Z,50.70
2018-09-22T01:08:33.760Z,50.40
2018-09-22T01:11:02.229Z,50.30
2018-09-22T01:13:30.551Z,50.50
2018-09-22T01:15:58.936Z,50.30
2018-09-22T01:18:27.359Z,49.80
2018-09-22T01:20:55.676Z,50.20
2018-09-22T01:23:24.020Z,50.30
2018-09-22T01:25:52.372Z,50.40
2018-09-22T01:28:20.723Z,50.80
2018-09-22T01:30:49.060Z,51.60
2018-09-22T01:33:17.440Z,52.10
2018-09-22T01:35:45.791Z,52.10
2018-09-22T01:38:14.160Z,52.50
2018-09-22T01:40:42.698Z,52.30
2018-09-22T01:43:11.154Z,52.80
2018-09-22T01:45:39.600Z,53.30
2018-09-22T01:48:07.944Z,52.70
2018-09-22T01:50:36.265Z,53.10
2018-09-22T01:53:04.712Z,53.20
2018-09-22T01:55:33.043Z,53.60
2018-09-22T01:58:01.392Z,53.70
2018-09-22T02:00:30.336Z,53.90
2018-09-22T02:02:58.772Z,53.80
2018-09-22T02:05:27.117Z,53.70
2018-09-22T02:07:55.457Z,53.50
2018-09-22T02:10:23.837Z,53.30
2018-09-22T02:12:52.320Z,52.60
2018-09-22T02:15:20.711Z,52.70
2018-09-22T02:17:49.048Z,52.70
2018-09-22T02:20:17.420Z,52.70
2018-09-22T02:22:45.824Z,52.70
2018-09-22T02:25:14.204Z,52.70
2018-09-22T02:27:42.552Z,52.80
2018-09-22T02:30:10.868Z,52.80
2018-09-22T02:32:39.192Z,52.80
2018-09-22T02:35:07.728Z,52.80
2018-09-22T02:37:36.104Z,52.80
2018-09-22T02:40:04.449Z,52.80
2018-09-22T02:42:33.478Z,52.80
2018-09-22T02:45:01.856Z,52.80
2018-09-22T02:47:30.185Z,52.70
2018-09-22T02:49:58.538Z,53.20
2018-09-22T02:52:26.851Z,53.40
2018-09-22T02:54:55.195Z,53.30
2018-09-22T02:57:23.722Z,53.50
2018-09-22T02:59:52.041Z,53.70
2018-09-22T03:02:21.179Z,53.40
2018-09-22T03:04:49.581Z,52.80
2018-09-22T03:07:18.049Z,53.30
2018-09-22T03:09:46.365Z,53.40
2018-09-22T03:12:15.269Z,53.40
2018-09-22T03:14:43.568Z,53.80
2018-09-22T03:17:12.018Z,54.00
2018-09-22T03:19:40.500Z,54.50
2018-09-22T03:22:08.839Z,54.60
2018-09-22T03:24:37.152Z,55.00
2018-09-22T03:27:05.502Z,55.30
2018-09-22T03:29:33.845Z,55.20
2018-09-22T03:32:02.154Z,55.40
2018-09-22T03:34:30.492Z,55.20
2018-09-22T03:36:59.308Z,55.60
2018-09-22T03:39:27.613Z,55.60
2018-09-22T03:41:56.015Z,55.30
2018-09-22T03:44:24.339Z,55.60
2018-09-22T03:46:52.673Z,55.20
2018-09-22T03:49:21.067Z,55.20
2018-09-22T03:51:49.383Z,55.50
2018-09-22T03:54:17.708Z,55.60
2018-09-22T03:56:46.023Z,55.80
2018-09-22T03:59:14.368Z,55.90
2018-09-22T04:01:43.201Z,56.00
2018-09-22T04:04:11.572Z,56.70
2018-09-22T04:06:39.955Z,56.70
2018-09-22T04:09:08.601Z,57.00
2018-09-22T04:11:40.927Z,57.20
2018-09-22T04:14:09.501Z,57.30
2018-09-22T04:16:37.965Z,57.10
2018-09-22T04:19:06.283Z,57.30
2018-09-22T04:21:34.664Z,57.50
2018-09-22T04:24:08.668Z,57.60
2018-09-22T04:26:37.019Z,57.70
2018-09-22T04:29:05.497Z,57.90
2018-09-22T04:31:33.861Z,58.00
2018-09-22T04:34:02.191Z,58.20
2018-09-22T04:36:30.523Z,58.40
2018-09-22T04:38:58.863Z,58.80
2018-09-22T04:41:27.247Z,59.00
2018-09-22T04:43:55.565Z,59.10
2018-09-22T04:46:25.926Z,59.20
2018-09-22T04:48:54.784Z,59.30
2018-09-22T04:51:23.117Z,59.40
2018-09-22T04:53:52.364Z,59.30
2018-09-22T04:56:20.726Z,59.10
2018-09-22T04:58:49.052Z,59.60
2018-09-22T05:01:17.404Z,59.20
2018-09-22T05:03:45.726Z,59.00
2018-09-22T05:06:14.050Z,59.10
2018-09-22T05:08:42.482Z,58.80
2018-09-22T05:11:10.808Z,59.00
2018-09-22T05:13:39.140Z,58.40
2018-09-22T05:16:07.492Z,58.40
2018-09-22T05:18:35.880Z,58.40
2018-09-22T05:21:05.012Z,58.20
2018-09-22T05:23:33.410Z,58.20
2018-09-22T05:26:02.147Z,58.30
2018-09-22T05:28:30.746Z,58.40
2018-09-22T05:30:59.200Z,58.30
2018-09-22T05:33:27.717Z,58.80
2018-09-22T05:35:56.098Z,58.90
2018-09-22T05:38:24.418Z,60.60
2018-09-22T05:40:52.746Z,59.40
2018-09-22T05:43:21.095Z,57.40
2018-09-22T05:45:49.430Z,58.00
2018-09-22T05:48:17.754Z,58.10
2018-09-22T05:50:46.096Z,58.00
2018-09-22T05:53:14.568Z,57.50
2018-09-22T05:55:42.887Z,57.60
2018-09-22T05:58:17.790Z,58.40
2018-09-22T06:00:46.113Z,58.30
2018-09-22T06:03:14.442Z,58.60
2018-09-22T06:05:42.792Z,59.00
2018-09-22T06:08:11.233Z,59.10
2018-09-22T06:10:39.573Z,58.90
2018-09-22T06:13:07.884Z,59.00
2018-09-22T06:15:36.219Z,59.60
2018-09-22T06:18:04.562Z,59.40
2018-09-22T06:20:32.937Z,59.50
2018-09-22T06:23:01.310Z,59.40
2018-09-22T06:25:29.626Z,59.70
2018-09-22T06:27:58.124Z,59.20
2018-09-22T06:30:26.448Z,58.90
2018-09-22T06:32:54.782Z,59.00
2018-09-22T06:35:23.176Z,58.50
2018-09-22T06:37:51.538Z,56.70
2018-09-22T06:40:20.160Z,57.10
2018-09-22T06:42:48.500Z,56.60
2018-09-22T06:45:17.272Z,55.70
2018-09-22T06:47:45.622Z,56.10
2018-09-22T06:50:13.984Z,55.90
2018-09-22T06:52:42.304Z,56.40
2018-09-22T06:55:10.817Z,55.30
2018-09-22T06:57:39.176Z,56.00
2018-09-22T07:00:07.554Z,55.50
2018-09-22T07:02:35.892Z,55.50
2018-09-22T07:05:04.238Z,54.90
2018-09-22T07:07:32.642Z,54.50
2018-09-22T07:10:00.966Z,54.40
2018-09-22T07:12:29.304Z,53.60
2018-09-22T07:14:57.804Z,54.40
2018-09-22T07:17:26.160Z,54.10
2018-09-22T07:19:54.524Z,54.10
2018-09-22T07:22:28.166Z,52.90
2018-09-22T07:24:56.611Z,53.40
2018-09-22T07:27:24.949Z,53.80
2018-09-22T07:29:53.282Z,54.30
2018-09-22T07:32:21.657Z,53.40
2018-09-22T07:34:49.973Z,52.10
2018-09-22T07:37:18.362Z,51.50
2018-09-22T07:39:46.710Z,51.00
2018-09-22T07:42:15.096Z,51.30
2018-09-22T07:44:43.537Z,51.00
2018-09-22T07:47:11.872Z,50.60
2018-09-22T07:49:40.215Z,49.50
2018-09-22T07:52:08.546Z,48.90
2018-09-22T07:54:36.885Z,49.00
2018-09-22T07:57:05.276Z,47.40
2018-09-22T07:59:33.637Z,48.10
2018-09-22T08:02:01.967Z,46.80
2018-09-22T08:04:30.326Z,46.70
2018-09-22T08:06:58.712Z,46.90
2018-09-22T08:09:27.056Z,46.50
2018-09-22T08:11:55.556Z,47.20
2018-09-22T08:14:23.888Z,46.90
2018-09-22T08:16:52.268Z,46.50
2018-09-22T08:19:20.639Z,45.50
2018-09-22T08:21:49.494Z,46.40
2018-09-22T08:24:17.980Z,46.90
2018-09-22T08:26:46.416Z,44.80
2018-09-22T08:29:14.847Z,45.00
2018-09-22T08:31:43.260Z,45.00
2018-09-22T08:34:12.484Z,44.90
2018-09-22T08:36:40.938Z,44.30
2018-09-22T08:39:11.229Z,45.10
2018-09-22T08:41:39.664Z,45.00
2018-09-22T08:44:08.125Z,45.10
2018-09-22T08:46:36.583Z,44.10
2018-09-22T08:49:05.000Z,43.20
2018-09-22T08:51:33.344Z,43.80
2018-09-22T08:54:01.696Z,44.50
2018-09-22T08:56:30.163Z,43.30
2018-09-22T08:58:58.521Z,43.20
2018-09-22T09:01:26.822Z,43.40
2018-09-22T09:03:55.386Z,43.00
2018-09-22T09:06:23.699Z,42.30
2018-09-22T09:08:52.032Z,42.40
2018-09-22T09:11:20.418Z,43.50
2018-09-22T09:13:48.990Z,42.10
2018-09-22T09:16:17.276Z,42.00
2018-09-22T09:18:45.739Z,41.50
2018-09-22T09:21:14.137Z,42.10
2018-09-22T09:23:42.450Z,42.10
2018-09-22T09:26:10.797Z,42.30
2018-09-22T09:28:39.142Z,42.80
2018-09-22T09:31:07.484Z,43.50
2018-09-22T09:33:35.807Z,41.80
2018-09-22T09:36:04.146Z,40.50
2018-09-22T09:38:33.895Z,42.40
2018-09-22T09:41:02.236Z,43.00
2018-09-22T09:43:30.577Z,41.40
2018-09-22T09:45:58.884Z,42.00
2018-09-22T09:48:27.241Z,39.90
2018-09-22T09:50:55.664Z,40.10
2018-09-22T09:53:24.030Z,40.90
2018-09-22T09:55:52.362Z,39.40
2018-09-22T09:58:20.696Z,38.20
2018-09-22T10:00:49.573Z,36.80
2018-09-22T10:03:18.487Z,38.10
2018-09-22T10:05:47.388Z,35.60
2018-09-22T10:08:16.163Z,35.80
2018-09-22T10:10:45.267Z,35.40
2018-09-22T10:13:14.290Z,34.30
2018-09-22T10:15:42.831Z,34.10
2018-09-22T10:18:11.163Z,34.50
2018-09-22T10:20:39.596Z,35.70
2018-09-22T10:23:07.943Z,33.60
2018-09-22T10:25:36.949Z,31.50
2018-09-22T10:28:05.466Z,31.20
2018-09-22T10:30:33.889Z,31.20
2018-09-22T10:33:02.230Z,32.90
2018-09-22T10:35:30.586Z,31.80
2018-09-22T10:37:58.950Z,30.50
2018-09-22T10:40:27.314Z,30.40
2018-09-22T10:42:55.656Z,30.20
2018-09-22T10:45:24.026Z,30.60
2018-09-22T10:47:52.423Z,30.30
2018-09-22T10:50:20.833Z,30.80
2018-09-22T10:52:49.326Z,30.10
2018-09-22T10:55:17.516Z,30.60
2018-09-22T10:57:45.855Z,30.00
2018-09-22T11:00:14.192Z,28.80
2018-09-22T11:02:42.524Z,29.20
2018-09-22T11:05:10.929Z,29.40
2018-09-22T11:07:39.266Z,29.90
2018-09-22T11:10:07.647Z,29.70
2018-09-22T11:12:35.979Z,29.90
2018-09-22T11:15:04.412Z,28.30
2018-09-22T11:17:33.567Z,28.90
2018-09-22T11:20:01.995Z,28.80
2018-09-22T11:22:30.350Z,28.20
2018-09-22T11:24:58.741Z,29.30
2018-09-22T11:27:36.710Z,28.40
2018-09-22T11:30:05.280Z,28.60
2018-09-22T11:32:33.746Z,29.00
2018-09-22T11:35:02.042Z,29.20
2018-09-22T11:37:30.408Z,28.40
2018-09-22T11:39:59.362Z,29.50
2018-09-22T11:42:27.698Z,29.50
2018-09-22T11:44:56.668Z,28.90
2018-09-22T11:47:25.117Z,28.40
2018-09-22T11:54:21.976Z,28.30
2018-09-22T11:56:50.340Z,28.30
2018-09-22T11:59:18.984Z,27.00
2018-09-22T12:01:47.396Z,27.40
2018-09-22T12:04:15.702Z,27.30
2018-09-22T12:06:44.294Z,28.20
2018-09-22T12:09:12.734Z,28.00
2018-09-22T12:11:41.460Z,27.50
2018-09-22T12:14:10.412Z,26.10
2018-09-22T12:16:40.772Z,26.10
2018-09-22T12:19:09.121Z,26.40
2018-09-22T12:21:37.433Z,27.00
2018-09-22T12:24:05.833Z,27.30
2018-09-22T12:26:34.289Z,26.70
2018-09-22T12:29:02.622Z,26.60
2018-09-22T12:31:30.957Z,26.30
2018-09-22T12:34:04.195Z,26.30
2018-09-22T12:36:32.799Z,26.40
2018-09-22T12:39:01.120Z,26.80
2018-09-22T12:41:30.049Z,25.70
2018-09-22T12:43:59.063Z,25.70
2018-09-22T12:46:27.728Z,25.80
2018-09-22T12:48:56.437Z,26.20
2018-09-22T12:51:24.875Z,26.40
2018-09-22T12:53:53.874Z,27.10
2018-09-22T12:56:22.825Z,26.40
2018-09-22T12:59:00.342Z,26.20
2018-09-22T13:01:28.671Z,26.20
2018-09-22T13:03:57.012Z,26.00
2018-09-22T13:06:25.402Z,26.10
2018-09-22T13:08:53.731Z,26.00
2018-09-22T13:11:22.195Z,26.40
2018-09-22T13:13:50.521Z,25.80
2018-09-22T13:16:18.992Z,25.90
2018-09-22T13:18:47.464Z,25.80
2018-09-22T13:21:16.023Z,25.40
2018-09-22T13:23:44.373Z,25.60
2018-09-22T13:26:12.915Z,25.90
2018-09-22T13:28:41.260Z,25.20
2018-09-22T13:31:09.729Z,25.80
2018-09-22T13:33:38.065Z,25.80
2018-09-22T13:36:06.885Z,26.70
2018-09-22T13:38:35.294Z,26.30
2018-09-22T13:41:03.609Z,25.50
2018-09-22T13:43:32.055Z,26.70
2018-09-22T13:46:00.357Z,26.40
2018-09-22T13:48:28.733Z,26.30
2018-09-22T13:50:57.474Z,27.00
2018-09-22T13:53:25.776Z,26.80
2018-09-22T13:55:54.163Z,26.80
2018-09-22T13:58:22.506Z,27.10
2018-09-22T14:00:50.940Z,26.60
2018-09-22T14:03:19.286Z,26.40
2018-09-22T14:05:47.748Z,26.10
2018-09-22T14:08:16.164Z,26.10
2018-09-22T14:10:44.512Z,26.60
2018-09-22T14:13:13.505Z,25.50
2018-09-22T14:15:41.895Z,25.90
2018-09-22T14:18:10.269Z,26.30
2018-09-22T14:20:38.669Z,25.90
2018-09-22T14:23:07.045Z,26.20
2018-09-22T14:25:35.397Z,27.10
2018-09-22T14:28:03.835Z,26.20
2018-09-22T14:30:32.215Z,26.40
2018-09-22T14:33:00.556Z,26.50
2018-09-22T14:35:28.896Z,26.60
2018-09-22T14:37:57.353Z,26.60
2018-09-22T14:40:25.723Z,27.00
2018-09-22T14:42:54.045Z,26.30
2018-09-22T14:45:22.547Z,26.90
2018-09-22T14:47:50.881Z,26.70
2018-09-22T14:50:19.251Z,26.60
2018-09-22T14:52:47.623Z,26.60
2018-09-22T14:55:16.651Z,26.60
2018-09-22T14:57:44.987Z,27.00
2018-09-22T15:00:13.352Z,27.20
2018-09-22T15:02:41.815Z,26.80
2018-09-22T15:05:10.196Z,27.10
2018-09-22T15:07:38.531Z,27.30
2018-09-22T15:10:06.924Z,26.80
2018-09-22T15:12:35.520Z,27.50
2018-09-22T15:15:04.638Z,27.40
2018-09-22T15:17:32.998Z,27.00
2018-09-22T15:20:02.053Z,26.60
2018-09-22T15:22:30.496Z,27.10
2018-09-22T15:24:58.871Z,27.20
2018-09-22T15:27:27.221Z,27.50
2018-09-22T15:29:55.548Z,27.30
2018-09-22T15:32:23.876Z,27.50
2018-09-22T15:34:52.203Z,27.30
2018-09-22T15:37:20.551Z,27.90
2018-09-22T15:39:48.997Z,27.90
2018-09-22T15:42:17.353Z,27.70
2018-09-22T15:44:45.707Z,27.80
2018-09-22T15:47:14.039Z,27.80
2018-09-22T15:49:42.401Z,27.80
2018-09-22T15:52:10.772Z,27.80
2018-09-22T15:54:39.147Z,28.20
2018-09-22T15:57:07.507Z,28.50
2018-09-22T15:59:36.731Z,28.20
2018-09-22T16:02:05.118Z,28.70
2018-09-22T16:04:33.455Z,28.90
2018-09-22T16:07:01.865Z,29.40
2018-09-22T16:09:30.524Z,29.80
2018-09-22T16:12:07.124Z,29.80
2018-09-22T16:14:35.475Z,29.80
2018-09-22T16:17:03.928Z,29.80
2018-09-22T16:19:32.278Z,29.50
2018-09-22T16:22:00.613Z,29.60
2018-09-22T16:24:28.971Z,29.50
2018-09-22T16:26:57.438Z,29.60
2018-09-22T16:29:25.801Z,29.90
2018-09-22T16:31:54.344Z,29.50
2018-09-22T16:34:22.692Z,29.40
2018-09-22T16:36:51.121Z,29.60
2018-09-22T16:39:19.473Z,29.70
2018-09-22T16:41:47.844Z,30.00
2018-09-22T16:44:16.219Z,29.90
2018-09-22T16:46:44.542Z,29.80
2018-09-22T16:49:13.024Z,29.60
2018-09-22T16:51:41.376Z,29.80
2018-09-22T16:54:09.854Z,30.30
2018-09-22T16:56:38.236Z,30.40
2018-09-22T16:59:06.636Z,30.20
2018-09-22T17:01:35.058Z,30.90
2018-09-22T17:04:03.501Z,32.60
2018-09-22T17:06:31.874Z,32.20
2018-09-22T17:09:00.327Z,34.00
2018-09-22T17:11:28.686Z,34.20
2018-09-22T17:13:57.052Z,35.70
2018-09-22T17:16:25.424Z,35.40
2018-09-22T17:18:53.736Z,38.10
2018-09-22T17:21:22.151Z,40.20
2018-09-22T17:23:50.509Z,42.00
2018-09-22T17:26:18.901Z,39.60
2018-09-22T17:28:47.279Z,40.90
2018-09-22T17:31:15.698Z,42.80
2018-09-22T17:33:44.040Z,44.00
2018-09-22T17:36:12.804Z,45.30
2018-09-22T17:38:41.332Z,46.30
2018-09-22T17:41:09.867Z,46.30
2018-09-22T17:43:38.828Z,46.80
2018-09-22T17:46:07.635Z,46.70
2018-09-22T17:48:36.164Z,46.70
2018-09-22T17:51:04.691Z,49.70
2018-09-22T17:53:33.060Z,51.20
2018-09-22T17:56:01.428Z,50.70
2018-09-22T17:58:31.808Z,51.40
2018-09-22T18:01:00.632Z,50.20
2018-09-22T18:03:29.013Z,48.20
2018-09-22T18:06:01.434Z,47.40
2018-09-22T18:08:29.845Z,47.60
2018-09-22T18:10:58.192Z,49.60
2018-09-22T18:13:27.251Z,49.50
2018-09-22T18:15:55.667Z,49.90
2018-09-22T18:18:24.129Z,50.80
2018-09-22T18:20:52.444Z,51.30
2018-09-22T18:23:20.805Z,52.60
2018-09-22T18:25:49.164Z,53.40
2018-09-22T18:28:17.550Z,54.40
2018-09-22T18:30:45.964Z,54.80
2018-09-22T18:33:14.735Z,55.00
2018-09-22T18:35:43.283Z,56.30
2018-09-22T18:38:12.034Z,55.90
2018-09-22T18:40:40.412Z,56.10
2018-09-22T18:43:09.578Z,56.00
2018-09-22T18:45:37.943Z,56.00
2018-09-22T18:48:06.402Z,56.00
2018-09-22T18:50:34.784Z,55.50
2018-09-22T18:53:03.195Z,54.50
2018-09-22T18:55:31.553Z,55.40
2018-09-22T18:58:00.044Z,56.00
2018-09-22T19:00:28.489Z,56.40
2018-09-22T19:02:57.432Z,56.90
2018-09-22T19:05:25.820Z,57.40
2018-09-22T19:07:54.248Z,57.80
2018-09-22T19:10:22.607Z,57.80
2018-09-22T19:12:51.012Z,57.70
2018-09-22T19:15:24.665Z,58.00
2018-09-22T19:18:02.589Z,57.80
2018-09-22T19:21:09.748Z,57.70
2018-09-22T19:23:47.309Z,57.80
2018-09-22T19:26:50.869Z,57.80
2018-09-22T19:29:25.199Z,58.20
2018-09-22T19:31:58.096Z,58.10
2018-09-22T19:34:30.100Z,55.90
2018-09-22T19:37:01.614Z,56.00
2018-09-22T19:39:45.164Z,57.30
2018-09-22T19:44:20.182Z,58.60
2018-09-22T19:46:58.224Z,59.40
2018-09-22T19:49:29.215Z,59.40
2018-09-22T19:52:02.645Z,59.80
2018-09-22T19:54:31.057Z,59.80
2018-09-22T19:56:59.437Z,59.80
2018-09-22T19:59:28.165Z,59.60
2018-09-22T20:01:56.859Z,59.50
2018-09-22T20:04:25.246Z,59.50
2018-09-22T20:06:54.157Z,60.60
2018-09-22T20:09:22.512Z,60.10
2018-09-22T20:11:50.901Z,59.60
2018-09-22T20:14:19.475Z,60.30
2018-09-22T20:16:47.933Z,58.60
2018-09-22T20:19:16.281Z,58.20
2018-09-22T20:21:44.993Z,58.60
2018-09-22T20:24:13.343Z,58.20
2018-09-22T20:26:41.699Z,58.80
2018-09-22T20:29:10.108Z,59.50
2018-09-22T20:31:38.433Z,60.20
2018-09-22T20:34:06.873Z,61.20
2018-09-22T20:36:35.215Z,61.40
2018-09-22T20:39:04.648Z,61.50
2018-09-22T20:41:39.682Z,62.70
2018-09-22T20:44:08.042Z,62.80
2018-09-22T20:46:36.379Z,62.70
2018-09-22T20:49:04.837Z,62.50
2018-09-22T20:51:33.185Z,61.60
2018-09-22T20:54:01.606Z,62.70
2018-09-22T20:56:29.962Z,64.60
2018-09-22T20:58:58.320Z,64.00
2018-09-22T21:01:26.809Z,63.30
2018-09-22T21:03:55.153Z,60.50
2018-09-22T21:06:23.496Z,59.70
2018-09-22T21:08:51.909Z,60.00
2018-09-22T21:11:24.720Z,61.00
2018-09-22T21:13:53.082Z,61.60
2018-09-22T21:16:21.616Z,62.20
2018-09-22T21:18:50.054Z,62.70
2018-09-22T21:21:18.343Z,63.30
2018-09-22T21:23:46.662Z,63.70
2018-09-22T21:26:15.002Z,63.80
2018-09-22T21:28:43.361Z,64.30
2018-09-22T21:31:11.737Z,64.30
2018-09-22T21:33:40.108Z,65.00
2018-09-22T21:36:08.458Z,65.00
2018-09-22T21:38:36.768Z,63.70
2018-09-22T21:41:05.174Z,61.00
2018-09-22T21:43:33.528Z,62.10
2018-09-22T21:46:01.867Z,61.60
2018-09-22T21:48:30.293Z,62.80
2018-09-22T21:50:58.615Z,63.30
2018-09-22T21:53:26.998Z,62.70
2018-09-22T21:55:55.389Z,62.80
2018-09-22T21:58:23.728Z,63.90
2018-09-22T22:00:53.460Z,64.50
2018-09-22T22:03:22.746Z,64.60
2018-09-22T22:05:51.122Z,64.50
2018-09-22T22:08:19.528Z,64.50
2018-09-22T22:10:48.032Z,64.80
2018-09-22T22:13:16.384Z,64.60
2018-09-22T22:15:44.793Z,64.60
2018-09-22T22:18:13.141Z,64.60
2018-09-22T22:20:41.481Z,64.60
2018-09-22T22:23:10.027Z,64.70
2018-09-22T22:25:38.440Z,64.70
2018-09-22T22:28:06.834Z,64.70
2018-09-22T22:30:35.180Z,64.70
2018-09-22T22:33:03.711Z,64.70
2018-09-22T22:35:33.199Z,65.10
2018-09-22T22:38:01.529Z,65.70
2018-09-22T22:40:29.894Z,66.70
2018-09-22T22:42:58.212Z,66.10
2018-09-22T22:45:26.544Z,65.70
2018-09-22T22:47:54.864Z,65.90
2018-09-22T22:50:23.215Z,64.70
2018-09-22T22:52:51.523Z,64.70
2018-09-22T22:55:19.847Z,64.70
2018-09-22T22:57:48.193Z,64.70
2018-09-22T23:00:16.605Z,64.70
2018-09-22T23:02:45.600Z,64.70
2018-09-22T23:05:13.933Z,64.70
2018-09-22T23:07:42.429Z,64.70
2018-09-22T23:10:10.852Z,64.70
2018-09-22T23:12:39.231Z,65.20
2018-09-22T23:15:07.568Z,65.60
2018-09-22T23:17:35.948Z,65.90
2018-09-22T23:20:04.362Z,65.40
2018-09-22T23:22:32.726Z,65.40
2018-09-22T23:25:01.056Z,66.00
2018-09-22T23:27:30.048Z,66.00
2018-09-22T23:29:58.527Z,65.80
2018-09-22T23:32:26.927Z,65.80
2018-09-22T23:34:55.260Z,65.80
2018-09-22T23:37:23.641Z,65.70
2018-09-22T23:39:52.036Z,65.70
2018-09-22T23:42:20.371Z,64.80
2018-09-22T23:44:48.730Z,64.80
2018-09-22T23:47:17.276Z,65.10
2018-09-22T23:49:45.744Z,65.50
2018-09-22T23:52:14.136Z,65.80
2018-09-22T23:54:42.501Z,65.80
2018-09-22T23:57:10.822Z,65.80
2018-09-22T23:59:39.182Z,65.80
